createdAt,value
2023-05-23T01:16:03.588Z,17.4
2023-05-23T01:45:53.326Z,15.1
2023-05-23T04:50:25.445Z,16
2023-05-23T05:05:48.094Z,15.5
2023-05-23T05:35:17.682Z,15.3
2023-05-23T05:50:19.799Z,15.5
2023-05-23T06:05:21.678Z,15.5
2023-05-23T06:20:26.852Z,16.1
2023-05-23T06:35:21.830Z,16.8
2023-05-23T06:50:22.206Z,16.6
2023-05-23T07:05:22.736Z,17.2
2023-05-23T07:20:26.105Z,17.2
2023-05-23T07:35:29.642Z,17.4
2023-05-23T07:50:30.035Z,17.8
2023-05-23T08:05:25.035Z,17.9
2023-05-23T08:20:26.239Z,18.8
2023-05-23T08:35:27.332Z,18.4
2023-05-23T09:05:48.582Z,18.4
2023-05-23T09:20:37.285Z,18.2
2023-05-23T09:35:48.083Z,18.2
2023-05-23T09:50:32.286Z,18
2023-05-23T10:05:30.256Z,18.1
2023-05-23T10:20:30.888Z,18
2023-05-23T10:35:31.371Z,17.9
2023-05-23T10:50:36.149Z,17.9
2023-05-23T11:05:32.389Z,18.6
2023-05-23T11:35:33.688Z,16.6
2023-05-23T11:50:34.187Z,16.5
2023-05-23T12:06:01.919Z,16.5
2023-05-23T12:20:36.627Z,16.2
2023-05-23T12:35:36.269Z,17.4
2023-05-23T12:50:36.792Z,17.6
2023-05-23T13:05:39.417Z,17.4
2023-05-23T13:20:55.070Z,17.4
2023-05-23T13:35:56.147Z,16.9
2023-05-23T17:35:57.547Z,17.7
2023-05-23T18:06:01.735Z,17.6
2023-05-23T18:36:09.941Z,17.2
2023-05-23T19:18:03.106Z,17.1
2023-05-23T21:51:05.577Z,16.4
2023-05-23T22:00:39.611Z,16.3
2023-05-23T22:15:38.002Z,16.2
2023-05-23T22:30:41.857Z,16.2
2023-05-23T22:45:38.752Z,15.9
2023-05-23T23:15:39.264Z,15.9
2023-05-23T23:30:43.546Z,15.9
2023-05-23T23:45:40.641Z,15.2
